Startpagina
METAR-TAF:

METAR-TAF

Vliegvelden :

Doesjanbe, Tadzjikistan

Luchthaven Doesjanbe

breedte: 38-33N, lengte: 068-47E, hoogte: 803 m

Actueel weer

Dit bericht is 26 minuten geleden gemaakt, om 12:30 UTC
Wind 8 kt uit het oostnoordoosten
Temperatuur 17°C
Vochtigheid 10%
Druk 1013 hPa
Zicht 10 km of meer

METAR: UTDD 221230Z 07004MPS 9999 NSC 17/M15 Q1013 R09/D NOSIG RMK QFE692/0922

Tijdstip: 17:56 (12:56 UTC)

Verwachting

Dit bericht is 56 minuten geleden gemaakt, om 12:00 UTC
Verwachting geldig van 22 om 13 UTC tot 23 om 01 UTC
Wind 4 kt uit variabele richting
Zicht: 5000 m
rook
Tijdelijke
van 22 om 13 UTC tot 22 om 16 UTC
Wind 12 kt uit het oosten
Tijdelijke
van 22 om 16 UTC tot 23 om 01 UTC
Zicht: 2100 m
nevel, rook

TAF: UTDD 221200Z 2213/2301 VRB02MPS 5000 FU NSC TEMPO 2213/2216 09006MPS TEMPO 2216/2301 2100 BR FU

Waarnemingen en weersverwachtingen van meer dan 4000 vliegvelden (METAR en TAF).

De beschikbare stations zijn de gele en rode punten op de kaart.

Ga met uw muis naar het station om de naam te zien.

Klik dan om waarnemingen en weersverwachtingen te zien.

kaart wijzigen: klik op de groene knoppen met een zwart kruis om in te zoomen, op de groene knop met een streepje om uit te zoomen of op de groene pijlen voor aangrenzende kaarten.


METAR-TAF: